Time;durP1;ratioP1;P1;durP2;ratioP2;P2;SDS_P1;SDS_P2;PMS_P1;PMS_P2;Temp;Humidity;BMP_temperature;BMP_pressure;BME280_temperature;BME280_humidity;BME280_pressure;Samples;Min_cycle;Max_cycle;Signal;HPM_P1;HPM_P2
2021/01/23 00:00:08;;;;;;;73.27;43.63;;;;;;;0.55;100.00;97362.09;2072613;28;20303;-76
2021/01/23 00:01:12;;;;;;;77.78;43.55;;;;;;;0.66;100.00;97384.59;2074233;28;20228;-76
2021/01/23 00:02:13;;;;;;;64.07;42.07;;;;;;;0.67;100.00;97378.28;2078472;28;20227;-76
2021/01/23 00:03:16;;;;;;;65.55;42.55;;;;;;;0.64;100.00;97376.22;2080660;28;20306;-76
2021/01/23 00:04:18;;;;;;;61.65;39.90;;;;;;;0.66;100.00;97381.19;2080875;28;20803;-76
2021/01/23 00:05:18;;;;;;;62.40;39.05;;;;;;;0.64;100.00;97376.22;2080661;28;20223;-76
2021/01/23 00:06:20;;;;;;;68.37;40.43;;;;;;;0.65;100.00;97379.63;2080643;28;20269;-76
2021/01/23 00:07:21;;;;;;;62.42;39.17;;;;;;;0.57;100.00;97359.97;2080801;28;20682;-76
2021/01/23 00:08:23;;;;;;;65.83;39.07;;;;;;;0.61;100.00;97368.06;2080559;28;20606;-76
2021/01/23 00:09:24;;;;;;;69.60;43.25;;;;;;;0.59;100.00;97362.31;2081285;28;20227;-76
2021/01/23 00:10:25;;;;;;;69.93;41.43;;;;;;;0.52;100.00;97352.94;2088974;28;20275;-76
2021/01/23 00:11:26;;;;;;;62.97;38.42;;;;;;;0.63;100.00;97364.16;2088609;28;20309;-76
2021/01/23 00:12:27;;;;;;;62.20;37.57;;;;;;;0.65;100.00;97366.50;2080553;28;20243;-76
2021/01/23 00:13:28;;;;;;;63.10;38.83;;;;;;;0.56;100.00;97353.94;2080890;28;20223;-76
2021/01/23 00:14:29;;;;;;;62.47;39.03;;;;;;;0.62;100.00;97362.56;2072361;28;20674;-77
2021/01/23 00:15:30;;;;;;;62.38;38.67;;;;;;;0.61;100.00;97355.78;2081236;28;20241;-74
2021/01/23 00:16:31;;;;;;;70.55;39.78;;;;;;;0.59;100.00;97363.09;2079997;28;20219;-76
2021/01/23 00:17:32;;;;;;;59.15;37.03;;;;;;;0.63;100.00;97358.13;2072153;28;20738;-76
2021/01/23 00:18:34;;;;;;;55.57;35.73;;;;;;;0.68;100.00;97360.69;2077116;28;20617;-76
2021/01/23 00:19:34;;;;;;;67.70;40.63;;;;;;;0.68;100.00;97358.84;2080678;28;20231;-76
2021/01/23 00:20:36;;;;;;;64.30;37.57;;;;;;;0.59;100.00;97341.34;2080428;28;20238;-76
2021/01/23 00:21:37;;;;;;;60.95;36.50;;;;;;;0.68;100.00;97352.81;2080657;28;20687;-76
2021/01/23 00:22:38;;;;;;;62.38;36.67;;;;;;;0.72;100.00;97367.75;2081080;28;20227;-76
2021/01/23 00:23:40;;;;;;;57.47;35.25;;;;;;;0.74;100.00;97355.13;2081215;28;20314;-76
2021/01/23 00:24:41;;;;;;;59.15;35.63;;;;;;;0.72;100.00;97351.22;2081249;28;20223;-76
2021/01/23 00:25:42;;;;;;;59.40;36.05;;;;;;;0.76;100.00;97353.00;2080259;28;20314;-75
2021/01/23 00:26:44;;;;;;;57.97;37.20;;;;;;;0.75;100.00;97345.41;2080070;28;20219;-74
2021/01/23 00:27:45;;;;;;;60.88;38.22;;;;;;;0.79;100.00;97352.47;2079903;28;20219;-74
2021/01/23 00:28:46;;;;;;;61.53;35.37;;;;;;;0.81;100.00;97350.34;2079459;28;20234;-74
2021/01/23 00:29:47;;;;;;;56.20;36.85;;;;;;;0.93;100.00;97351.84;2080365;28;20710;-75
2021/01/23 00:30:48;;;;;;;65.23;36.77;;;;;;;0.91;100.00;97343.47;2080387;28;20227;-76
2021/01/23 00:31:49;;;;;;;55.78;36.92;;;;;;;1.00;100.00;97349.69;2080171;28;20250;-75
2021/01/23 00:32:50;;;;;;;56.87;35.83;;;;;;;0.98;100.00;97334.22;2080325;28;20223;-76
2021/01/23 00:33:51;;;;;;;59.50;37.35;;;;;;;1.05;100.00;97339.94;2080278;28;20227;-76
2021/01/23 00:34:53;;;;;;;56.50;36.43;;;;;;;1.07;100.00;97350.94;2071860;28;20302;-76
2021/01/23 00:35:54;;;;;;;60.17;36.75;;;;;;;1.00;100.00;97328.69;2080288;28;20306;-76
2021/01/23 00:36:55;;;;;;;56.40;36.03;;;;;;;1.15;100.00;97343.53;2080464;28;20223;-75
2021/01/23 00:37:56;;;;;;;55.00;35.58;;;;;;;1.17;100.00;97338.75;2080381;28;20286;-75
2021/01/23 00:38:59;;;;;;;56.73;35.57;;;;;;;1.13;100.00;97331.44;2079640;28;20235;-76
2021/01/23 00:40:00;;;;;;;54.47;33.65;;;;;;;1.23;100.00;97340.28;2079740;28;20937;-75
2021/01/23 00:41:01;;;;;;;58.73;37.03;;;;;;;1.22;100.00;97346.59;2079516;28;20223;-75
2021/01/23 00:42:02;;;;;;;53.50;35.17;;;;;;;1.24;100.00;97352.38;2079538;28;20286;-75
2021/01/23 00:43:04;;;;;;;57.38;35.83;;;;;;;1.24;100.00;97347.09;2079560;28;20231;-76
2021/01/23 00:44:05;;;;;;;56.83;37.60;;;;;;;1.13;100.00;97331.44;2079575;28;20721;-76
2021/01/23 00:45:07;;;;;;;62.03;37.47;;;;;;;1.14;100.00;97334.84;2079634;28;20556;-75
2021/01/23 00:46:08;;;;;;;52.33;34.45;;;;;;;1.23;100.00;97359.47;2079277;28;20318;-75
2021/01/23 00:47:10;;;;;;;55.97;35.80;;;;;;;1.15;100.00;97338.25;2081923;28;20812;-76
2021/01/23 00:48:11;;;;;;;56.47;34.67;;;;;;;1.16;100.00;97340.59;2081144;28;20277;-76
2021/01/23 00:49:13;;;;;;;52.88;35.20;;;;;;;1.24;100.00;97347.88;2081904;28;20227;-76
2021/01/23 00:50:14;;;;;;;56.00;35.85;;;;;;;1.27;100.00;97357.06;2082825;28;20242;-76
2021/01/23 00:51:16;;;;;;;55.55;36.20;;;;;;;1.21;100.00;97332.66;2075034;28;20220;-76
2021/01/23 00:52:17;;;;;;;54.53;35.05;;;;;;;1.32;100.00;97349.13;2082445;28;20298;-75
2021/01/23 00:53:19;;;;;;;51.28;35.55;;;;;;;1.33;100.00;97351.47;2081048;28;20293;-76
2021/01/23 00:54:21;;;;;;;52.70;33.28;;;;;;;1.33;100.00;97335.72;2081362;28;20254;-75
2021/01/23 00:55:23;;;;;;;52.00;33.38;;;;;;;1.41;100.00;97342.22;2070579;28;20718;-75
2021/01/23 00:56:24;;;;;;;52.42;33.10;;;;;;;1.38;100.00;97334.88;2083255;28;20224;-76
2021/01/23 00:57:25;;;;;;;55.30;35.30;;;;;;;1.37;100.00;97339.34;2083626;28;20243;-76
2021/01/23 00:58:26;;;;;;;54.47;33.78;;;;;;;1.39;100.00;97334.63;2083133;28;20647;-76
2021/01/23 00:59:27;;;;;;;51.93;35.27;;;;;;;1.46;100.00;97342.13;2083444;28;20235;-76
2021/01/23 01:00:30;;;;;;;55.83;34.17;;;;;;;1.40;100.00;97336.19;2075244;28;20232;-76
2021/01/23 01:01:31;;;;;;;52.30;34.50;;;;;;;1.45;100.00;97335.31;2082378;28;20219;-76
2021/01/23 01:02:32;;;;;;;54.92;33.78;;;;;;;1.45;100.00;97340.56;2081094;28;20630;-76
2021/01/23 01:03:34;;;;;;;51.80;34.00;;;;;;;1.39;100.00;97328.53;2081769;28;20227;-76
2021/01/23 01:04:38;;;;;;;53.35;32.83;;;;;;;1.47;100.00;97341.06;2080366;28;20227;-75
2021/01/23 01:05:39;;;;;;;52.90;34.97;;;;;;;1.48;100.00;97340.03;2080858;28;20231;-74
2021/01/23 01:06:40;;;;;;;51.22;34.33;;;;;;;1.43;100.00;97324.31;2081573;28;20235;-74
2021/01/23 01:07:41;;;;;;;51.23;33.83;;;;;;;1.48;100.00;97334.78;2081584;28;20235;-75
2021/01/23 01:08:42;;;;;;;52.88;34.10;;;;;;;1.45;100.00;97327.44;2081146;28;20227;-75
2021/01/23 01:09:45;;;;;;;48.67;34.50;;;;;;;1.47;100.00;97327.16;2080920;28;20229;-76
2021/01/23 01:10:45;;;;;;;54.08;33.65;;;;;;;1.53;100.00;97328.69;2081115;28;20222;-75
2021/01/23 01:11:47;;;;;;;45.50;33.37;;;;;;;1.54;100.00;97327.59;2080911;28;20828;-75
2021/01/23 01:12:48;;;;;;;54.42;33.97;;;;;;;1.62;100.00;97337.50;2080926;28;20263;-76
2021/01/23 01:13:49;;;;;;;57.77;33.63;;;;;;;1.55;100.00;97319.44;2081080;28;20273;-76
2021/01/23 01:14:50;;;;;;;52.72;32.28;;;;;;;1.62;100.00;97330.41;2080869;28;20796;-76
2021/01/23 01:15:51;;;;;;;54.47;33.87;;;;;;;1.66;100.00;97328.00;2080910;28;20565;-76
2021/01/23 01:16:52;;;;;;;64.93;38.40;;;;;;;1.61;100.00;97320.97;2080654;28;20276;-76
2021/01/23 01:17:53;;;;;;;55.00;34.43;;;;;;;1.59;100.00;97317.84;2082018;28;20732;-76
2021/01/23 01:18:54;;;;;;;49.75;31.63;;;;;;;1.64;100.00;97325.66;2082112;28;20265;-76
2021/01/23 01:19:55;;;;;;;47.83;31.53;;;;;;;1.61;100.00;97318.34;2082003;28;20223;-76
2021/01/23 01:20:56;;;;;;;54.30;32.88;;;;;;;1.64;100.00;97317.75;2082111;28;20579;-76
2021/01/23 01:21:57;;;;;;;55.73;34.57;;;;;;;1.66;100.00;97312.25;2081859;28;20250;-76
2021/01/23 01:22:58;;;;;;;53.05;33.75;;;;;;;1.66;100.00;97310.41;2082130;28;20258;-76
2021/01/23 01:23:59;;;;;;;52.17;32.57;;;;;;;1.61;100.00;97299.94;2081046;28;20256;-76
2021/01/23 01:25:01;;;;;;;47.65;32.72;;;;;;;1.65;100.00;97310.66;2081276;28;20319;-76
2021/01/23 01:26:02;;;;;;;47.95;31.33;;;;;;;1.63;100.00;97307.53;2082102;28;20223;-76
2021/01/23 01:27:04;;;;;;;43.13;30.60;;;;;;;1.63;100.00;97307.53;2082047;28;20227;-76
2021/01/23 01:28:05;;;;;;;51.30;33.45;;;;;;;1.60;100.00;97306.25;2081858;28;20600;-76
2021/01/23 01:29:06;;;;;;;48.78;32.08;;;;;;;1.59;100.00;97314.44;2082448;28;20253;-76
2021/01/23 01:30:09;;;;;;;51.80;33.93;;;;;;;1.53;100.00;97300.53;2071675;28;20235;-76
2021/01/23 01:31:09;;;;;;;49.25;32.13;;;;;;;1.54;100.00;97302.13;2082471;28;20231;-76
2021/01/23 01:32:11;;;;;;;53.57;34.00;;;;;;;1.54;100.00;97298.69;2081981;28;20254;-76
2021/01/23 01:33:11;;;;;;;51.58;32.58;;;;;;;1.47;100.00;97293.00;2073833;28;20335;-76
2021/01/23 01:34:13;;;;;;;38.93;28.73;;;;;;;1.54;100.00;97296.06;2082435;28;20223;-76
2021/01/23 01:35:14;;;;;;;47.63;31.23;;;;;;;1.66;100.00;97297.25;2082728;28;20223;-76
2021/01/23 01:36:15;;;;;;;54.77;33.90;;;;;;;1.65;100.00;97306.22;2082336;28;20215;-76
2021/01/23 01:37:16;;;;;;;48.72;31.92;;;;;;;1.59;100.00;97293.41;2082530;28;20725;-76
2021/01/23 01:38:18;;;;;;;52.10;31.27;;;;;;;1.55;100.00;97290.53;2081766;28;20678;-76
2021/01/23 01:39:18;;;;;;;48.40;32.50;;;;;;;1.47;100.00;97278.00;2080811;28;20767;-76
2021/01/23 01:40:21;;;;;;;49.17;31.23;;;;;;;1.58;100.00;97289.22;2080586;28;20625;-75
2021/01/23 01:41:21;;;;;;;42.97;30.63;;;;;;;1.55;100.00;97290.53;2080905;28;20223;-76
2021/01/23 01:42:23;;;;;;;52.17;31.33;;;;;;;1.53;100.00;97287.41;2080411;28;20231;-76
2021/01/23 01:43:23;;;;;;;48.17;30.88;;;;;;;1.53;100.00;97282.16;2080733;28;20332;-76
2021/01/23 01:44:25;;;;;;;50.10;30.90;;;;;;;1.45;100.00;97267.00;2080562;28;20273;-76
2021/01/23 01:45:26;;;;;;;50.47;31.58;;;;;;;1.47;100.00;97280.63;2088891;28;20231;-76
2021/01/23 01:46:27;;;;;;;51.33;31.67;;;;;;;1.41;100.00;97279.16;2097111;28;20233;-76
2021/01/23 01:47:28;;;;;;;49.58;31.95;;;;;;;1.42;100.00;97281.50;2081309;28;20607;-76
2021/01/23 01:48:29;;;;;;;52.47;32.63;;;;;;;1.37;100.00;97288.63;2081523;28;20242;-75
2021/01/23 01:49:30;;;;;;;48.42;31.65;;;;;;;1.34;100.00;97290.00;2080708;28;20223;-76
2021/01/23 01:50:33;;;;;;;43.45;29.85;;;;;;;1.36;100.00;97285.22;2080686;28;20239;-76
2021/01/23 01:51:34;;;;;;;46.38;30.90;;;;;;;1.38;100.00;97295.47;2080781;28;20251;-76
2021/01/23 01:52:36;;;;;;;51.25;29.63;;;;;;;1.37;100.00;97294.69;2081483;28;20238;-76
2021/01/23 01:53:38;;;;;;;48.78;31.63;;;;;;;1.35;100.00;97288.94;2080196;28;20315;-76
2021/01/23 01:54:40;;;;;;;46.25;29.80;;;;;;;1.32;100.00;97284.25;2080461;28;20593;-76
2021/01/23 01:55:41;;;;;;;54.42;34.10;;;;;;;1.31;100.00;97289.78;2080665;28;20219;-76
2021/01/23 01:56:43;;;;;;;51.97;30.08;;;;;;;1.30;100.00;97289.00;2080855;28;20223;-76
2021/01/23 01:57:44;;;;;;;44.65;29.88;;;;;;;1.29;100.00;97276.13;2080062;28;20227;-76
2021/01/23 01:58:45;;;;;;;45.00;29.55;;;;;;;1.17;100.00;97267.84;2080687;28;20219;-76
2021/01/23 01:59:46;;;;;;;54.75;32.90;;;;;;;1.13;100.00;97263.16;2080825;28;20223;-76
2021/01/23 02:00:48;;;;;;;40.42;29.15;;;;;;;1.25;100.00;97283.00;2080570;28;20764;-76
2021/01/23 02:01:56;;;;;;;42.40;28.70;;;;;;;1.34;100.00;97279.47;2080848;28;20313;-76
2021/01/23 02:03:33;;;;;;;43.88;28.73;;;;;;;1.42;100.00;97275.47;2067491;28;20229;-76
2021/01/23 02:04:38;;;;;;;49.83;29.50;;;;;;;1.43;100.00;97277.03;2063718;28;20237;-76
2021/01/23 02:05:43;;;;;;;50.10;32.97;;;;;;;1.37;100.00;97273.66;2073260;28;20319;-76
2021/01/23 02:07:03;;;;;;;45.47;30.33;;;;;;;1.35;100.00;97277.63;2073086;28;20216;-76
2021/01/23 02:08:09;;;;;;;54.45;34.60;;;;;;;1.30;100.00;97275.06;2079397;28;20273;-76
2021/01/23 02:09:17;;;;;;;48.83;30.08;;;;;;;1.12;100.00;97261.56;2081097;28;20223;-76
2021/01/23 02:10:23;;;;;;;46.47;29.60;;;;;;;1.25;100.00;97280.38;2074371;28;20284;-77
2021/01/23 02:11:30;;;;;;;46.53;28.60;;;;;;;1.23;100.00;97278.03;2081117;28;20232;-76
2021/01/23 02:12:40;;;;;;;48.33;29.20;;;;;;;1.22;100.00;97283.56;2081840;28;20273;-76
2021/01/23 02:13:44;;;;;;;52.30;31.67;;;;;;;1.22;100.00;97286.19;2081131;28;20250;-76
2021/01/23 02:14:49;;;;;;;53.10;32.97;;;;;;;1.21;100.00;97276.72;2073647;28;20243;-76
2021/01/23 02:15:58;;;;;;;50.38;30.92;;;;;;;1.16;100.00;97279.44;2074182;28;20228;-76
2021/01/23 02:17:03;;;;;;;42.90;27.98;;;;;;;1.13;100.00;97273.66;2081432;28;20661;-76
2021/01/23 02:18:06;;;;;;;39.42;28.05;;;;;;;1.22;100.00;97270.44;2082316;28;20302;-76
2021/01/23 02:19:17;;;;;;;42.63;29.40;;;;;;;1.33;100.00;97264.78;2081657;28;20219;-76
2021/01/23 02:20:32;;;;;;;45.42;32.05;;;;;;;1.30;100.00;97272.41;2082822;28;20235;-76
2021/01/23 02:22:11;;;;;;;44.47;30.00;;;;;;;1.33;100.00;97272.66;2098228;28;20716;-76
2021/01/23 02:23:15;;;;;;;52.92;30.77;;;;;;;1.37;100.00;97270.25;2081544;28;20686;-76
2021/01/23 02:24:21;;;;;;;52.03;31.95;;;;;;;1.41;100.00;97272.06;2081614;28;20231;-76
2021/01/23 02:25:23;;;;;;;50.13;31.67;;;;;;;1.46;100.00;97270.41;2081411;28;20381;-77
2021/01/23 02:26:29;;;;;;;50.78;32.83;;;;;;;1.55;100.00;97268.72;2081884;28;20709;-77
2021/01/23 02:27:41;;;;;;;49.55;30.55;;;;;;;1.57;100.00;97256.09;2082146;28;20365;-76
2021/01/23 02:29:07;;;;;;;46.90;30.15;;;;;;;1.75;100.00;97267.72;2082048;28;20238;-76
2021/01/23 02:30:14;;;;;;;49.65;30.05;;;;;;;1.77;100.00;97257.69;2081022;28;20223;-76
2021/01/23 02:31:17;;;;;;;51.17;31.90;;;;;;;1.82;100.00;97258.38;2081686;28;20231;-76
2021/01/23 02:32:19;;;;;;;47.05;30.42;;;;;;;1.72;100.00;97248.00;2082501;28;20670;-76
2021/01/23 02:33:22;;;;;;;49.03;31.23;;;;;;;1.72;100.00;97252.50;2082608;28;20307;-76
2021/01/23 02:34:24;;;;;;;48.90;31.70;;;;;;;1.69;100.00;97259.09;2081146;28;20304;-76
2021/01/23 02:35:26;;;;;;;47.60;29.40;;;;;;;1.69;100.00;97244.09;2073741;28;20254;-76
2021/01/23 02:36:28;;;;;;;50.30;31.27;;;;;;;1.68;100.00;97254.91;2081751;28;20246;-76
2021/01/23 02:37:30;;;;;;;50.00;32.25;;;;;;;1.65;100.00;97252.81;2081641;28;20243;-76
2021/01/23 02:38:32;;;;;;;49.50;31.77;;;;;;;1.60;100.00;97255.53;2081272;28;20225;-76
2021/01/23 02:39:35;;;;;;;45.83;30.88;;;;;;;1.55;100.00;97253.75;2081037;28;20219;-76
2021/01/23 02:40:35;;;;;;;45.20;29.88;;;;;;;1.54;100.00;97246.91;2081452;28;20227;-76
2021/01/23 02:41:37;;;;;;;55.27;32.37;;;;;;;1.53;100.00;97250.63;2081858;28;20227;-76
2021/01/23 02:42:38;;;;;;;44.05;30.20;;;;;;;1.55;100.00;97248.47;2079220;28;20621;-76
2021/01/23 02:43:42;;;;;;;43.97;30.08;;;;;;;1.52;100.00;97249.06;2082445;28;20236;-76
2021/01/23 02:44:43;;;;;;;49.47;30.50;;;;;;;1.51;100.00;97260.63;2080912;28;20257;-76
2021/01/23 02:45:47;;;;;;;46.58;29.80;;;;;;;1.48;100.00;97252.50;2072945;28;20402;-76
2021/01/23 02:46:51;;;;;;;42.17;28.10;;;;;;;1.45;100.00;97260.97;2081806;28;20230;-76
2021/01/23 02:47:52;;;;;;;48.28;29.80;;;;;;;1.44;100.00;97257.56;2081690;28;20293;-76
2021/01/23 02:48:53;;;;;;;48.37;29.97;;;;;;;1.41;100.00;97258.13;2093785;28;20313;-76
2021/01/23 02:49:54;;;;;;;40.20;29.23;;;;;;;1.39;100.00;97257.59;2085948;28;20713;-76
2021/01/23 02:50:58;;;;;;;39.17;27.63;;;;;;;1.39;100.00;97249.72;2085247;28;20544;-77
2021/01/23 02:52:03;;;;;;;49.78;31.65;;;;;;;1.35;100.00;97248.75;2084975;28;20579;-76
2021/01/23 02:53:08;;;;;;;45.17;32.05;;;;;;;1.33;100.00;97245.63;2084357;28;20231;-76
2021/01/23 02:54:20;;;;;;;41.28;28.25;;;;;;;1.28;100.00;97243.03;2083459;28;20234;-76
2021/01/23 02:55:22;;;;;;;48.55;30.88;;;;;;;1.24;100.00;97234.94;2083347;28;20258;-76
2021/01/23 02:56:24;;;;;;;49.55;32.38;;;;;;;1.28;100.00;97248.28;2075317;28;20267;-76
2021/01/23 02:57:26;;;;;;;37.70;25.98;;;;;;;1.28;100.00;97245.66;2084414;28;20240;-77
2021/01/23 02:58:30;;;;;;;37.58;26.17;;;;;;;1.34;100.00;97240.06;2083651;28;20278;-76
2021/01/23 02:59:33;;;;;;;31.27;24.83;;;;;;;1.38;100.00;97245.53;2081690;28;20676;-76
2021/01/23 03:00:35;;;;;;;36.95;27.05;;;;;;;1.40;100.00;97241.59;2081652;28;20247;-77
2021/01/23 03:01:40;;;;;;;38.10;25.85;;;;;;;1.41;100.00;97232.63;2089523;28;20281;-76
2021/01/23 03:02:45;;;;;;;47.28;31.58;;;;;;;1.46;100.00;97228.38;2079590;28;20234;-76
2021/01/23 03:03:47;;;;;;;43.17;27.42;;;;;;;1.38;100.00;97224.53;2080890;28;20241;-76
2021/01/23 03:04:49;;;;;;;36.72;25.05;;;;;;;1.54;100.00;97233.00;2072918;28;20259;-76
2021/01/23 03:05:51;;;;;;;40.35;26.98;;;;;;;1.55;100.00;97237.97;2081066;28;20302;-77
2021/01/23 03:06:52;;;;;;;40.60;27.45;;;;;;;1.51;100.00;97234.34;2081672;28;20674;-76
2021/01/23 03:07:54;;;;;;;40.25;27.17;;;;;;;1.42;100.00;97230.78;2081275;28;20693;-76
2021/01/23 03:08:54;;;;;;;32.78;24.95;;;;;;;1.56;100.00;97242.16;2081278;28;20270;-76
2021/01/23 03:09:56;;;;;;;36.40;24.87;;;;;;;1.56;100.00;97236.91;2080615;28;20223;-76
2021/01/23 03:10:56;;;;;;;41.30;28.00;;;;;;;1.55;100.00;97222.19;2081217;28;20304;-76
2021/01/23 03:11:58;;;;;;;41.20;28.13;;;;;;;1.57;100.00;97241.13;2081825;28;20216;-76
2021/01/23 03:12:59;;;;;;;42.50;27.92;;;;;;;1.51;100.00;97231.72;2080817;28;20302;-76
2021/01/23 03:14:00;;;;;;;35.97;24.50;;;;;;;1.59;100.00;97233.72;2080969;28;20229;-76
2021/01/23 03:15:01;;;;;;;46.15;29.88;;;;;;;1.50;100.00;97224.91;2072772;28;20282;-76
2021/01/23 03:16:03;;;;;;;44.28;28.30;;;;;;;1.56;100.00;97233.50;2080957;28;20651;-76
2021/01/23 03:17:04;;;;;;;39.08;26.77;;;;;;;1.52;100.00;97222.00;2081317;28;20227;-76
2021/01/23 03:18:06;;;;;;;38.53;26.40;;;;;;;1.53;100.00;97224.34;2081650;28;20223;-76
2021/01/23 03:19:07;;;;;;;34.90;24.83;;;;;;;1.53;100.00;97221.72;2080096;28;20227;-76
2021/01/23 03:20:09;;;;;;;31.70;25.40;;;;;;;1.52;100.00;97217.53;2080856;28;20326;-76
2021/01/23 03:21:10;;;;;;;32.58;25.23;;;;;;;1.47;100.00;97208.91;2081321;28;20733;-76
2021/01/23 03:22:11;;;;;;;34.43;25.60;;;;;;;1.54;100.00;97217.22;2080087;28;20583;-76
2021/01/23 03:23:12;;;;;;;31.80;23.92;;;;;;;1.56;100.00;97226.41;2072371;28;20311;-77
2021/01/23 03:24:14;;;;;;;31.73;24.50;;;;;;;1.57;100.00;97230.59;2088579;28;20226;-76
2021/01/23 03:25:15;;;;;;;33.00;26.15;;;;;;;1.55;100.00;97219.56;2097074;28;20226;-76
2021/01/23 03:26:16;;;;;;;36.80;27.27;;;;;;;1.52;100.00;97214.91;2080461;28;20222;-76
2021/01/23 03:27:17;;;;;;;42.65;25.70;;;;;;;1.54;100.00;97223.28;2080535;28;20302;-76
2021/01/23 03:28:19;;;;;;;33.47;23.20;;;;;;;1.57;100.00;97227.97;2080342;28;20223;-76
2021/01/23 03:29:20;;;;;;;30.35;23.30;;;;;;;1.56;100.00;97213.25;2080319;28;20302;-76
2021/01/23 03:30:22;;;;;;;34.95;25.30;;;;;;;1.60;100.00;97213.47;2080116;28;20220;-77
2021/01/23 03:31:23;;;;;;;34.03;24.38;;;;;;;1.57;100.00;97220.09;2096630;28;20315;-76
2021/01/23 03:32:24;;;;;;;35.00;24.67;;;;;;;1.54;100.00;97207.50;2096966;28;20280;-76
2021/01/23 03:33:26;;;;;;;31.67;23.00;;;;;;;1.65;100.00;97226.53;2080597;28;20276;-76
2021/01/23 03:34:27;;;;;;;30.38;23.38;;;;;;;1.66;100.00;97226.28;2080737;28;20234;-76
2021/01/23 03:35:28;;;;;;;34.67;24.75;;;;;;;1.68;100.00;97220.75;2080722;28;20302;-76
2021/01/23 03:36:29;;;;;;;32.90;23.73;;;;;;;1.69;100.00;97222.31;2079945;28;20223;-76
2021/01/23 03:37:30;;;;;;;33.75;25.23;;;;;;;1.65;100.00;97214.22;2071813;28;20311;-76
2021/01/23 03:38:32;;;;;;;35.08;24.00;;;;;;;1.75;100.00;97217.75;2088416;28;20214;-76
2021/01/23 03:39:33;;;;;;;29.42;23.45;;;;;;;1.75;100.00;97212.50;2097209;28;20251;-76
2021/01/23 03:40:35;;;;;;;35.40;25.42;;;;;;;1.72;100.00;97210.44;2080935;28;20261;-76
2021/01/23 03:41:36;;;;;;;37.85;26.52;;;;;;;1.82;100.00;97231.31;2080556;28;20227;-76
2021/01/23 03:42:38;;;;;;;37.17;25.88;;;;;;;1.82;100.00;97220.81;2080053;28;20243;-76
2021/01/23 03:43:39;;;;;;;31.15;24.35;;;;;;;1.83;100.00;97222.38;2080948;28;20258;-75
2021/01/23 03:44:40;;;;;;;31.98;23.48;;;;;;;1.87;100.00;97226.00;2081124;28;20306;-76
2021/01/23 03:45:41;;;;;;;35.07;23.70;;;;;;;1.89;100.00;97223.88;2081139;28;20235;-76
2021/01/23 03:46:42;;;;;;;32.65;22.88;;;;;;;1.92;100.00;97225.94;2081440;28;20314;-76
2021/01/23 03:47:44;;;;;;;31.57;25.43;;;;;;;1.97;100.00;97216.13;2081001;28;20224;-76
2021/01/23 03:48:45;;;;;;;34.97;24.52;;;;;;;2.03;100.00;97216.84;2081055;28;20227;-76
2021/01/23 03:49:47;;;;;;;29.30;24.55;;;;;;;2.03;100.00;97211.56;2083097;28;20584;-76
2021/01/23 03:50:47;;;;;;;31.08;23.60;;;;;;;2.09;100.00;97212.28;2081522;28;20659;-76
2021/01/23 03:51:49;;;;;;;37.87;25.40;;;;;;;2.17;100.00;97222.13;2081619;28;20589;-76
2021/01/23 03:52:49;;;;;;;33.83;26.23;;;;;;;2.15;100.00;97209.28;2082290;28;20713;-77
2021/01/23 03:53:51;;;;;;;35.27;25.73;;;;;;;2.20;100.00;97211.06;2081712;28;20623;-76
2021/01/23 03:54:52;;;;;;;31.48;23.25;;;;;;;2.16;100.00;97195.03;2081814;28;20666;-76
2021/01/23 03:55:53;;;;;;;31.93;23.87;;;;;;;2.15;100.00;97196.13;2081934;28;20224;-76
2021/01/23 03:56:54;;;;;;;31.38;24.38;;;;;;;2.20;100.00;97201.31;2081302;28;20278;-76
2021/01/23 03:57:55;;;;;;;33.93;25.90;;;;;;;2.22;100.00;97203.66;2080830;28;20231;-76
2021/01/23 03:58:56;;;;;;;32.30;23.80;;;;;;;2.11;100.00;97192.50;2081355;28;20273;-76
2021/01/23 03:59:57;;;;;;;37.23;24.87;;;;;;;2.19;100.00;97205.00;2081123;28;20706;-76
2021/01/23 04:00:58;;;;;;;32.78;24.55;;;;;;;2.13;100.00;97200.88;2080719;28;20220;-76
2021/01/23 04:01:59;;;;;;;33.10;24.27;;;;;;;2.12;100.00;97207.22;2080635;28;20223;-76
2021/01/23 04:03:00;;;;;;;34.97;24.67;;;;;;;2.10;100.00;97206.72;2081557;28;20223;-76
2021/01/23 04:04:02;;;;;;;33.17;24.50;;;;;;;2.08;100.00;97203.59;2081529;28;20222;-76
2021/01/23 04:05:04;;;;;;;31.17;22.83;;;;;;;2.08;100.00;97203.59;2080618;28;20685;-76
2021/01/23 04:06:06;;;;;;;29.10;23.20;;;;;;;2.05;100.00;97198.91;2080840;28;20564;-76
2021/01/23 04:07:06;;;;;;;30.35;23.52;;;;;;;1.97;100.00;97187.19;2080324;28;20289;-76
2021/01/23 04:08:08;;;;;;;33.13;23.53;;;;;;;1.98;100.00;97185.34;2080451;28;20262;-76
2021/01/23 04:09:09;;;;;;;27.48;22.85;;;;;;;2.08;100.00;97198.31;2079816;28;20273;-76
2021/01/23 04:10:11;;;;;;;31.53;22.17;;;;;;;2.11;100.00;97202.25;2080487;28;20280;-75
2021/01/23 04:11:12;;;;;;;30.48;23.98;;;;;;;2.15;100.00;97197.97;2079858;28;20306;-76
2021/01/23 04:12:13;;;;;;;32.70;23.97;;;;;;;2.19;100.00;97191.09;2071421;28;20782;-76
2021/01/23 04:13:14;;;;;;;30.80;24.50;;;;;;;2.23;100.00;97198.09;2088105;28;20237;-76
2021/01/23 04:14:16;;;;;;;28.23;23.40;;;;;;;2.32;100.00;97205.34;2088225;28;20222;-76
2021/01/23 04:15:17;;;;;;;27.02;22.70;;;;;;;2.39;100.00;97205.75;2081022;28;20694;-76
2021/01/23 04:16:18;;;;;;;31.67;22.70;;;;;;;2.45;100.00;97207.25;2081182;28;20642;-76
2021/01/23 04:17:19;;;;;;;30.15;22.42;;;;;;;2.51;100.00;97206.06;2081002;28;20223;-76
2021/01/23 04:18:20;;;;;;;28.93;24.23;;;;;;;2.53;100.00;97193.41;2082310;28;20227;-77
2021/01/23 04:19:22;;;;;;;31.90;23.73;;;;;;;2.59;100.00;97202.00;2081057;28;20697;-77
2021/01/23 04:20:23;;;;;;;30.15;24.02;;;;;;;2.61;100.00;97195.38;2081007;28;20227;-76
2021/01/23 04:21:24;;;;;;;27.35;22.88;;;;;;;2.60;100.00;97185.91;2082897;28;20272;-76
2021/01/23 04:22:25;;;;;;;26.43;22.30;;;;;;;2.68;100.00;97195.78;2083720;28;20223;-77
2021/01/23 04:23:26;;;;;;;27.23;22.85;;;;;;;2.74;100.00;97191.97;2086696;28;20295;-76
2021/01/23 04:24:27;;;;;;;28.43;22.87;;;;;;;2.77;100.00;97188.75;2085512;28;20241;-76
2021/01/23 04:25:28;;;;;;;30.33;21.77;;;;;;;2.81;100.00;97188.97;2084599;28;20223;-76
2021/01/23 04:26:29;;;;;;;28.00;22.87;;;;;;;2.84;100.00;97189.16;2093173;28;20233;-77
2021/01/23 04:27:31;;;;;;;27.02;21.83;;;;;;;2.79;100.00;97178.72;2092457;28;20226;-77
2021/01/23 04:28:34;;;;;;;28.95;23.33;;;;;;;2.90;100.00;97186.44;2084483;28;20317;-77
2021/01/23 04:29:34;;;;;;;30.10;22.27;;;;;;;2.91;100.00;97193.28;2074971;28;20234;-76
2021/01/23 04:30:36;;;;;;;28.80;22.97;;;;;;;2.93;100.00;97191.13;2090760;28;20226;-76
2021/01/23 04:31:37;;;;;;;26.65;22.05;;;;;;;2.90;100.00;97183.81;2098651;28;20657;-76
2021/01/23 04:32:38;;;;;;;34.08;23.50;;;;;;;2.94;100.00;97188.19;2081985;28;20613;-76
2021/01/23 04:33:40;;;;;;;27.48;21.95;;;;;;;2.96;100.00;97190.56;2082477;28;20281;-76
2021/01/23 04:34:42;;;;;;;32.35;23.40;;;;;;;2.99;100.00;97197.88;2083565;28;20223;-76
2021/01/23 04:35:43;;;;;;;31.95;23.20;;;;;;;2.96;100.00;97195.81;2082451;28;20298;-76
2021/01/23 04:36:44;;;;;;;27.63;23.13;;;;;;;3.00;100.00;97191.50;2082713;28;20215;-76
2021/01/23 04:37:45;;;;;;;25.35;21.67;;;;;;;2.99;100.00;97185.47;2082066;28;20700;-76
2021/01/23 04:38:46;;;;;;;32.05;23.30;;;;;;;2.98;100.00;97199.72;2082842;28;20227;-77
2021/01/23 04:39:47;;;;;;;25.70;21.70;;;;;;;2.97;100.00;97187.63;2083753;28;20255;-76
2021/01/23 04:40:49;;;;;;;29.63;24.37;;;;;;;2.98;100.00;97191.03;2083142;28;20219;-76
2021/01/23 04:41:49;;;;;;;27.83;22.67;;;;;;;3.00;100.00;97196.78;2084001;28;20302;-76
2021/01/23 04:42:51;;;;;;;28.23;24.60;;;;;;;3.01;100.00;97193.06;2084671;28;20740;-76
2021/01/23 04:43:52;;;;;;;30.27;23.95;;;;;;;3.01;100.00;97193.84;2075833;28;20321;-76
2021/01/23 04:44:53;;;;;;;32.33;24.47;;;;;;;3.03;100.00;97193.56;2075464;28;20228;-76
2021/01/23 04:45:54;;;;;;;29.58;22.50;;;;;;;3.01;100.00;97193.06;2075711;28;20621;-76